KONA/ONA METAR and TAF weather

Enter ICAO airport designator
Station Type Date Time Source
KONA METAR 2019/02/20 23:35 UTC NOAA

KONA 202335Z AUTO 28005KT 10SM BKN029 OVC055 00/M03 A2962 RMK AO2


Station Type Date Time Source
KONA Decoded METAR 2019/02/20 23:35 UTC NOAA

Winona, Winona Municipal Airport-Max Conrad Field, MN, United States (KONA) 44-05N 091-42W
Feb 20, 2019 - 06:35 PM EST / 2019.02.20 2335 UTC
Wind: from the W (280 degrees) at 6 MPH (5 KT):0
Visibility: 10 mile(s):0
Sky conditions: overcast
Temperature: 32 F (0 C)
Windchill: 26 F (-3 C):1
Dew Point: 26 F (-3 C)
Relative Humidity: 80%
Pressure (altimeter): 29.62 in. Hg (1003 hPa)
ob: KONA 202335Z AUTO 28005KT 10SM BKN029 OVC055 00/M03 A2962 RMK AO2
cycle: 23

Station Type Date Time Source
KONA TAF UTC NOAA

Error!


Example: see airport list